createdAt,value
2019-01-30T00:01:21.414Z,9.33
2019-01-30T00:03:52.277Z,8.63
2019-01-30T00:06:22.020Z,9.33
2019-01-30T00:08:52.359Z,8.63
2019-01-30T00:11:22.054Z,8.17
2019-01-30T00:13:51.744Z,8.90
2019-01-30T00:16:21.385Z,7.07
2019-01-30T00:18:52.735Z,7.60
2019-01-30T00:21:22.474Z,7.10
2019-01-30T00:23:52.422Z,7.00
2019-01-30T00:26:22.785Z,9.30
2019-01-30T00:28:52.878Z,7.13
2019-01-30T00:31:22.524Z,8.33
2019-01-30T00:33:51.976Z,7.87
2019-01-30T00:36:22.426Z,8.77
2019-01-30T00:38:52.067Z,6.80
2019-01-30T00:41:21.717Z,6.70
2019-01-30T00:43:53.173Z,6.90
2019-01-30T00:46:22.920Z,7.47
2019-01-30T00:48:52.621Z,8.10
2019-01-30T00:51:22.305Z,6.50
2019-01-30T00:53:52.246Z,4.90
2019-01-30T00:56:22.807Z,9.57
2019-01-30T00:58:53.031Z,9.00
2019-01-30T01:01:22.777Z,10.53
2019-01-30T01:03:52.475Z,11.40
2019-01-30T01:06:22.649Z,8.50
2019-01-30T01:08:54.060Z,7.13
2019-01-30T01:11:24.026Z,8.43
2019-01-30T01:13:54.219Z,8.63
2019-01-30T01:16:23.843Z,8.27
2019-01-30T01:18:53.703Z,8.10
2019-01-30T01:21:24.866Z,8.00
2019-01-30T01:23:54.958Z,7.33
2019-01-30T01:26:26.566Z,7.23
2019-01-30T01:28:59.698Z,6.73
2019-01-30T01:31:29.588Z,7.57
2019-01-30T01:33:59.656Z,6.90
2019-01-30T01:36:29.573Z,7.87
2019-01-30T01:39:00.225Z,8.03
2019-01-30T01:41:29.961Z,8.00
2019-01-30T01:43:59.878Z,7.83
2019-01-30T01:46:29.675Z,7.83
2019-01-30T01:48:59.355Z,7.47
2019-01-30T01:51:28.979Z,8.37
2019-01-30T01:53:58.713Z,9.10
2019-01-30T01:56:28.791Z,8.20
2019-01-30T01:58:58.418Z,7.57
2019-01-30T02:01:29.610Z,8.07
2019-01-30T02:04:00.202Z,6.30
2019-01-30T02:06:32.425Z,7.50
2019-01-30T02:09:03.942Z,8.50
2019-01-30T02:11:34.786Z,7.20
2019-01-30T02:14:04.804Z,7.20
2019-01-30T02:16:34.427Z,7.27
2019-01-30T02:19:05.710Z,6.97
2019-01-30T02:21:35.335Z,6.97
2019-01-30T02:24:04.967Z,6.83
2019-01-30T02:26:34.627Z,7.70
2019-01-30T02:29:04.586Z,6.30
2019-01-30T02:31:34.291Z,6.83
2019-01-30T02:34:03.950Z,7.20
2019-01-30T02:36:35.828Z,6.73
2019-01-30T02:39:07.672Z,6.43
2019-01-30T02:41:37.485Z,6.90
2019-01-30T02:44:07.386Z,6.93
2019-01-30T02:46:37.181Z,6.60
2019-01-30T02:49:07.516Z,7.57
2019-01-30T02:51:37.482Z,7.07
2019-01-30T02:54:07.221Z,7.50
2019-01-30T02:56:36.904Z,7.37
2019-01-30T02:59:06.523Z,7.70
2019-01-30T03:01:37.892Z,7.37
2019-01-30T03:04:07.576Z,8.03
2019-01-30T03:06:37.934Z,8.63
2019-01-30T03:09:10.205Z,9.20
2019-01-30T03:11:40.071Z,9.87
2019-01-30T03:14:10.017Z,9.73
2019-01-30T03:16:39.873Z,9.30
2019-01-30T03:19:09.617Z,9.67
2019-01-30T03:21:40.176Z,9.00
2019-01-30T03:24:11.493Z,8.93
2019-01-30T03:26:41.285Z,8.87
2019-01-30T03:29:11.082Z,8.27
2019-01-30T03:31:40.883Z,7.47
2019-01-30T03:34:10.607Z,6.23
2019-01-30T03:36:40.220Z,6.47
2019-01-30T03:39:10.832Z,6.40
2019-01-30T03:41:41.028Z,6.93
2019-01-30T03:44:11.159Z,6.93
2019-01-30T03:46:41.025Z,6.90
2019-01-30T03:49:11.068Z,7.60
2019-01-30T03:51:41.473Z,6.33
2019-01-30T03:54:11.297Z,7.60
2019-01-30T03:56:41.221Z,6.53
2019-01-30T03:59:11.217Z,7.30
2019-01-30T04:01:41.498Z,6.37
2019-01-30T04:04:11.178Z,7.10
2019-01-30T04:06:40.813Z,7.70
2019-01-30T04:09:10.497Z,7.60
2019-01-30T04:11:40.769Z,7.67
2019-01-30T04:14:10.800Z,8.43
2019-01-30T04:16:40.454Z,7.50
2019-01-30T04:19:10.348Z,7.77
2019-01-30T04:21:40.633Z,8.37
2019-01-30T04:24:10.606Z,8.57
2019-01-30T04:26:40.240Z,8.17
2019-01-30T04:29:09.870Z,8.43
2019-01-30T04:31:39.823Z,38.10
2019-01-30T04:34:10.028Z,99.07
2019-01-30T04:36:40.118Z,8.20
2019-01-30T04:39:09.879Z,7.53
2019-01-30T04:41:40.348Z,8.10
2019-01-30T04:44:10.401Z,9.53
2019-01-30T04:46:40.318Z,10.40
2019-01-30T04:49:09.955Z,8.17
2019-01-30T04:51:39.607Z,7.77
2019-01-30T04:54:10.563Z,7.43
2019-01-30T04:56:40.773Z,7.93
2019-01-30T04:59:10.487Z,7.20
2019-01-30T05:01:49.488Z,7.83
2019-01-30T05:04:11.478Z,8.33
2019-01-30T05:06:41.102Z,8.50
2019-01-30T05:09:11.383Z,8.87
2019-01-30T05:11:41.285Z,8.53
2019-01-30T05:14:11.435Z,7.50
2019-01-30T05:16:42.275Z,7.87
2019-01-30T05:19:12.163Z,7.73
2019-01-30T05:21:42.262Z,18.73
2019-01-30T05:24:12.326Z,22.13
2019-01-30T05:26:42.108Z,8.70
2019-01-30T05:29:11.740Z,8.70
2019-01-30T05:31:42.884Z,8.97
2019-01-30T05:34:12.571Z,8.97
2019-01-30T05:36:42.872Z,7.70
2019-01-30T05:39:12.715Z,9.37
2019-01-30T05:41:42.674Z,9.23
2019-01-30T05:44:12.297Z,8.07
2019-01-30T05:46:42.035Z,9.90
2019-01-30T05:49:11.672Z,8.57
2019-01-30T05:51:42.203Z,10.57
2019-01-30T05:54:11.707Z,10.23
2019-01-30T05:56:41.399Z,9.30
2019-01-30T05:59:11.066Z,9.07
2019-01-30T06:01:40.750Z,10.40
2019-01-30T06:04:10.382Z,10.63
2019-01-30T06:06:40.755Z,10.03
2019-01-30T06:09:10.688Z,17.07
2019-01-30T06:11:40.319Z,15.07
2019-01-30T06:14:10.935Z,10.43
2019-01-30T06:16:40.768Z,9.50
2019-01-30T06:19:11.961Z,11.50
2019-01-30T06:21:41.961Z,12.93
2019-01-30T06:24:12.595Z,18.93
2019-01-30T06:26:42.607Z,19.77
2019-01-30T06:29:12.373Z,20.30
2019-01-30T06:31:42.133Z,22.20
2019-01-30T06:34:12.631Z,26.80
2019-01-30T06:36:42.940Z,32.73
2019-01-30T06:39:12.615Z,18.67
2019-01-30T06:41:42.246Z,11.63
2019-01-30T06:44:11.872Z,12.30
2019-01-30T06:46:42.684Z,10.37
2019-01-30T06:49:12.259Z,10.07
2019-01-30T06:51:42.380Z,10.07
2019-01-30T06:54:12.070Z,9.53
2019-01-30T06:56:42.469Z,10.50
2019-01-30T06:59:12.438Z,10.27
2019-01-30T07:01:43.555Z,11.90
2019-01-30T07:04:13.185Z,10.17
2019-01-30T07:06:42.825Z,10.37
2019-01-30T07:09:14.245Z,11.03
2019-01-30T07:11:43.881Z,9.47
2019-01-30T07:14:14.095Z,9.57
2019-01-30T07:16:45.114Z,29.43
2019-01-30T07:19:15.310Z,37.57
2019-01-30T07:21:45.111Z,30.97
2019-01-30T07:24:14.934Z,14.23
2019-01-30T07:26:44.390Z,11.00
2019-01-30T07:29:14.282Z,10.83
2019-01-30T07:31:44.268Z,10.57
2019-01-30T07:34:14.016Z,11.20
2019-01-30T07:36:45.731Z,11.60
2019-01-30T07:39:17.101Z,12.43
2019-01-30T07:41:47.012Z,14.47
2019-01-30T07:44:18.202Z,19.93
2019-01-30T07:46:48.139Z,16.60
2019-01-30T07:49:18.025Z,12.87
2019-01-30T07:51:47.932Z,21.00
2019-01-30T07:54:18.390Z,13.77
2019-01-30T07:56:48.276Z,14.63
2019-01-30T07:59:18.813Z,15.30
2019-01-30T08:01:50.179Z,11.87
2019-01-30T08:04:19.809Z,10.43
2019-01-30T08:06:49.719Z,11.17
2019-01-30T08:09:19.589Z,10.30
2019-01-30T08:11:49.898Z,11.90
2019-01-30T08:14:19.536Z,13.20
2019-01-30T08:16:50.375Z,15.77
2019-01-30T08:19:20.856Z,13.50
2019-01-30T08:21:51.953Z,13.10
2019-01-30T08:24:22.780Z,12.87
2019-01-30T08:26:53.154Z,12.10
2019-01-30T08:29:23.173Z,13.17
2019-01-30T08:31:53.082Z,12.53
2019-01-30T08:34:23.675Z,12.10
2019-01-30T08:36:53.373Z,12.10
2019-01-30T08:39:23.083Z,22.50
2019-01-30T08:41:52.728Z,34.97
2019-01-30T08:44:22.345Z,23.93
2019-01-30T08:46:52.016Z,12.77
2019-01-30T08:49:22.119Z,11.93
2019-01-30T08:51:51.931Z,13.43
2019-01-30T08:54:22.268Z,14.20
2019-01-30T08:56:53.039Z,13.93
2019-01-30T08:59:23.105Z,13.70
2019-01-30T09:01:52.798Z,14.23
2019-01-30T09:04:23.473Z,14.53
2019-01-30T09:06:54.104Z,15.23
2019-01-30T09:09:24.087Z,13.03
2019-01-30T09:11:54.059Z,15.87
2019-01-30T09:14:23.774Z,28.37
2019-01-30T09:16:54.115Z,18.77
2019-01-30T09:19:24.811Z,18.37
2019-01-30T09:21:56.718Z,17.67
2019-01-30T09:24:26.369Z,15.77
2019-01-30T09:26:56.108Z,16.00
2019-01-30T09:29:26.259Z,17.47
2019-01-30T09:31:56.217Z,15.50
2019-01-30T09:34:25.959Z,14.80
2019-01-30T09:36:55.594Z,13.77
2019-01-30T09:39:25.267Z,13.83
2019-01-30T09:41:54.901Z,14.87
2019-01-30T09:44:24.853Z,13.20
2019-01-30T09:46:54.692Z,14.70
2019-01-30T09:49:28.396Z,14.13
2019-01-30T09:51:58.252Z,17.47
2019-01-30T09:54:27.887Z,15.77
2019-01-30T09:56:57.816Z,15.67
2019-01-30T09:59:27.552Z,14.50
2019-01-30T10:01:57.428Z,16.17
2019-01-30T10:04:27.058Z,19.30
2019-01-30T10:06:56.922Z,16.20
2019-01-30T10:09:26.684Z,16.50
2019-01-30T10:11:56.340Z,16.23
2019-01-30T10:14:26.066Z,14.53
2019-01-30T10:16:55.927Z,16.53
2019-01-30T10:19:25.710Z,15.80
2019-01-30T10:21:55.878Z,15.27
2019-01-30T10:24:29.104Z,17.17
2019-01-30T10:26:58.745Z,16.60
2019-01-30T10:29:28.553Z,16.73
2019-01-30T10:31:58.694Z,13.87
2019-01-30T10:34:30.133Z,17.20
2019-01-30T10:36:59.936Z,16.03
2019-01-30T10:39:29.455Z,15.33
2019-01-30T10:41:59.216Z,15.13
2019-01-30T10:44:29.013Z,16.60
2019-01-30T10:47:00.139Z,14.43
2019-01-30T10:49:29.779Z,15.77
2019-01-30T10:51:59.656Z,15.97
2019-01-30T10:54:29.811Z,16.80
2019-01-30T10:57:00.210Z,16.80
2019-01-30T10:59:29.863Z,18.03
2019-01-30T11:01:59.733Z,17.63
2019-01-30T11:04:29.360Z,20.80
2019-01-30T11:06:58.978Z,19.63
2019-01-30T11:09:28.667Z,21.17
2019-01-30T11:11:58.375Z,21.50
2019-01-30T11:14:28.272Z,18.23
2019-01-30T11:16:59.079Z,18.47
2019-01-30T11:19:29.658Z,18.70
2019-01-30T11:22:00.557Z,17.40
2019-01-30T11:24:30.341Z,16.00
2019-01-30T11:27:00.811Z,13.93
2019-01-30T11:29:30.637Z,15.60
2019-01-30T11:32:02.818Z,16.50
2019-01-30T11:34:32.586Z,25.97
2019-01-30T11:37:02.601Z,18.37
2019-01-30T11:39:32.298Z,37.80
2019-01-30T11:42:03.813Z,68.13
2019-01-30T11:44:34.177Z,21.93
2019-01-30T11:47:04.140Z,21.27
2019-01-30T11:49:34.326Z,18.20
2019-01-30T11:52:04.280Z,13.80
2019-01-30T11:54:38.902Z,15.40
2019-01-30T11:57:07.348Z,14.80
2019-01-30T11:59:36.961Z,16.03
2019-01-30T12:02:06.788Z,18.97
2019-01-30T12:04:37.779Z,17.47
2019-01-30T12:07:08.277Z,14.90
2019-01-30T12:09:38.456Z,14.27
2019-01-30T12:12:09.173Z,15.97
2019-01-30T12:14:38.842Z,17.30
2019-01-30T12:17:08.508Z,11.50
2019-01-30T12:19:38.470Z,13.37
2019-01-30T12:22:08.488Z,11.20
2019-01-30T12:24:38.453Z,11.17
2019-01-30T12:27:08.971Z,11.20
2019-01-30T12:29:40.211Z,12.57
2019-01-30T12:32:09.887Z,16.93
2019-01-30T12:34:40.477Z,16.33
2019-01-30T12:37:10.513Z,13.73
2019-01-30T12:39:42.442Z,13.13
2019-01-30T12:42:12.359Z,11.90
2019-01-30T12:44:42.107Z,12.43
2019-01-30T12:47:19.749Z,12.60
2019-01-30T12:49:43.939Z,12.13
2019-01-30T12:52:14.394Z,12.27
2019-01-30T12:54:43.934Z,11.87
2019-01-30T12:57:13.686Z,11.87
2019-01-30T12:59:44.251Z,13.20
2019-01-30T13:02:13.929Z,12.20
2019-01-30T13:04:44.841Z,14.10
2019-01-30T13:07:14.485Z,13.67
2019-01-30T13:09:44.669Z,15.57
2019-01-30T13:12:14.472Z,14.80
2019-01-30T13:14:45.909Z,16.40
2019-01-30T13:17:16.064Z,16.87
2019-01-30T13:19:45.774Z,16.23
2019-01-30T13:22:16.494Z,15.77
2019-01-30T13:24:48.730Z,16.00
2019-01-30T13:27:18.899Z,16.00
2019-01-30T13:29:48.707Z,16.40
2019-01-30T13:32:18.614Z,16.77
2019-01-30T13:34:49.239Z,17.67
2019-01-30T13:37:19.673Z,18.67
2019-01-30T13:39:49.741Z,16.90
2019-01-30T13:42:20.213Z,13.53
2019-01-30T13:44:50.862Z,14.73
2019-01-30T13:47:20.889Z,15.87
2019-01-30T13:49:50.645Z,15.33
2019-01-30T13:52:23.185Z,17.67
2019-01-30T13:54:53.277Z,17.27
2019-01-30T13:57:23.807Z,20.37
2019-01-30T13:59:54.567Z,23.43
2019-01-30T14:02:24.584Z,28.37
2019-01-30T14:04:59.450Z,25.37
2019-01-30T14:07:26.563Z,26.83
2019-01-30T14:09:57.071Z,26.07
2019-01-30T14:12:27.399Z,28.03
2019-01-30T14:14:58.032Z,26.00
2019-01-30T14:17:28.866Z,19.97
2019-01-30T14:20:04.822Z,20.47
2019-01-30T14:22:35.812Z,18.70
2019-01-30T14:25:07.589Z,16.23
2019-01-30T14:27:37.604Z,17.77
2019-01-30T14:30:14.017Z,17.67
2019-01-30T14:32:43.671Z,18.07
2019-01-30T14:35:14.483Z,18.30
2019-01-30T14:37:44.205Z,18.87
2019-01-30T14:40:16.721Z,19.73
2019-01-30T14:42:46.632Z,17.87
2019-01-30T14:45:18.711Z,16.97
2019-01-30T14:47:53.755Z,18.87
2019-01-30T14:50:26.807Z,17.10
2019-01-30T14:52:57.170Z,21.67
2019-01-30T14:55:27.825Z,26.90
2019-01-30T14:57:58.389Z,31.10
2019-01-30T15:00:31.009Z,24.70
2019-01-30T15:03:01.639Z,25.17
2019-01-30T15:05:31.536Z,25.33
2019-01-30T15:08:01.656Z,27.10
2019-01-30T15:10:31.415Z,28.13
2019-01-30T15:13:01.266Z,25.27
2019-01-30T15:15:32.881Z,23.03
2019-01-30T15:18:02.839Z,22.97
2019-01-30T15:20:34.811Z,25.40
2019-01-30T15:23:06.115Z,26.50
2019-01-30T15:25:35.766Z,31.63
2019-01-30T15:28:05.765Z,29.43
2019-01-30T15:30:43.678Z,29.93
2019-01-30T15:33:14.817Z,28.10
2019-01-30T15:35:46.946Z,35.43
2019-01-30T15:38:16.657Z,98.73
2019-01-30T15:40:48.025Z,50.20
2019-01-30T15:43:20.176Z,105.00
2019-01-30T15:45:49.826Z,184.73
2019-01-30T15:48:21.026Z,153.83
2019-01-30T15:50:51.021Z,103.60
2019-01-30T15:53:20.669Z,66.47
2019-01-30T15:56:08.004Z,43.03
2019-01-30T15:58:57.773Z,41.33
2019-01-30T16:01:27.558Z,42.47
2019-01-30T16:03:58.060Z,44.13
2019-01-30T16:06:27.989Z,43.63
2019-01-30T16:08:58.591Z,44.80
2019-01-30T16:11:28.702Z,48.17
2019-01-30T16:13:59.444Z,66.90
2019-01-30T16:16:29.159Z,79.40
2019-01-30T16:18:59.172Z,79.27
2019-01-30T16:21:28.817Z,73.03
2019-01-30T16:23:58.856Z,71.80
2019-01-30T16:26:28.501Z,64.90
2019-01-30T16:28:59.013Z,63.93
2019-01-30T16:31:28.950Z,55.37
2019-01-30T16:33:59.413Z,56.13
2019-01-30T16:36:29.490Z,57.50
2019-01-30T16:39:01.288Z,59.70
2019-01-30T16:41:31.101Z,66.03
2019-01-30T16:44:00.812Z,71.17
2019-01-30T16:46:30.484Z,66.57
2019-01-30T16:49:00.443Z,70.37
2019-01-30T16:51:30.084Z,69.23
2019-01-30T16:53:59.867Z,67.80
2019-01-30T16:56:29.500Z,64.87
2019-01-30T16:58:59.643Z,61.03
2019-01-30T17:01:30.766Z,61.37
2019-01-30T17:04:01.573Z,60.33
2019-01-30T17:06:31.327Z,60.93
2019-01-30T17:09:01.031Z,61.77
2019-01-30T17:11:30.967Z,64.93
2019-01-30T17:14:00.604Z,62.80
2019-01-30T17:16:33.369Z,61.77
2019-01-30T17:19:03.249Z,67.10
2019-01-30T17:21:33.923Z,65.20
2019-01-30T17:24:03.641Z,65.67
2019-01-30T17:26:34.809Z,56.93
2019-01-30T17:29:04.514Z,48.03
2019-01-30T17:31:35.993Z,56.17
2019-01-30T17:34:05.904Z,51.13
2019-01-30T17:36:37.559Z,50.60
2019-01-30T17:39:09.483Z,49.47
2019-01-30T17:41:39.502Z,48.23
2019-01-30T17:44:12.785Z,47.50
2019-01-30T17:46:44.038Z,43.03
2019-01-30T17:49:13.667Z,43.80
2019-01-30T17:51:43.662Z,43.47
2019-01-30T17:54:13.382Z,41.00
2019-01-30T17:56:43.083Z,48.37
2019-01-30T17:59:13.215Z,46.47
2019-01-30T18:01:43.213Z,42.00
2019-01-30T18:04:15.522Z,39.70
2019-01-30T18:06:46.087Z,39.43
2019-01-30T18:09:16.051Z,36.73
2019-01-30T18:11:48.990Z,34.67
2019-01-30T18:14:18.989Z,33.13
2019-01-30T18:16:48.909Z,33.40
2019-01-30T18:19:20.135Z,34.13
2019-01-30T18:21:49.903Z,33.70
2019-01-30T18:24:20.850Z,33.37
2019-01-30T18:26:51.113Z,93.20
2019-01-30T18:29:21.060Z,46.30
2019-01-30T18:31:52.572Z,41.13
2019-01-30T18:34:22.570Z,42.00
2019-01-30T18:36:53.648Z,47.00
2019-01-30T18:39:23.354Z,53.50
2019-01-30T18:41:53.043Z,56.43
2019-01-30T18:44:22.977Z,55.63
2019-01-30T18:46:52.736Z,53.57
2019-01-30T18:49:23.700Z,50.37
2019-01-30T18:51:53.340Z,47.23
2019-01-30T18:54:24.088Z,46.77
2019-01-30T18:56:53.840Z,45.93
2019-01-30T18:59:25.942Z,46.27
2019-01-30T19:01:55.618Z,47.33
2019-01-30T19:04:26.226Z,48.20
2019-01-30T19:06:55.877Z,52.07
2019-01-30T19:09:26.282Z,52.53
2019-01-30T19:11:55.738Z,53.83
2019-01-30T19:14:25.422Z,56.07
2019-01-30T19:16:55.219Z,55.27
2019-01-30T19:19:25.236Z,58.90
2019-01-30T19:21:54.921Z,61.23
2019-01-30T19:24:24.565Z,61.17
2019-01-30T19:26:56.318Z,56.37
2019-01-30T19:29:25.960Z,52.07
2019-01-30T19:31:56.946Z,62.00
2019-01-30T19:34:26.979Z,55.83
2019-01-30T19:37:03.556Z,55.93
2019-01-30T19:39:29.381Z,53.20
2019-01-30T19:41:59.038Z,56.57
2019-01-30T19:44:28.671Z,61.33
2019-01-30T19:46:58.751Z,70.00
2019-01-30T19:49:29.587Z,70.57
2019-01-30T19:51:59.243Z,70.00
2019-01-30T19:54:28.964Z,69.60
2019-01-30T19:56:58.601Z,74.20
2019-01-30T19:59:28.109Z,73.43
2019-01-30T20:01:57.825Z,81.77
2019-01-30T20:04:28.262Z,97.77
2019-01-30T20:07:01.065Z,135.10
2019-01-30T20:09:31.136Z,104.00
2019-01-30T20:12:01.020Z,95.07
2019-01-30T20:14:31.530Z,92.70
2019-01-30T20:17:02.261Z,87.23
2019-01-30T20:19:32.285Z,86.20
2019-01-30T20:22:02.880Z,84.20
2019-01-30T20:24:32.708Z,81.67
2019-01-30T20:27:03.898Z,84.07
2019-01-30T20:29:36.379Z,80.93
2019-01-30T20:32:09.295Z,74.30
2019-01-30T20:34:39.374Z,73.07
2019-01-30T20:37:09.000Z,69.87
2019-01-30T20:39:38.873Z,70.77
2019-01-30T20:42:10.355Z,70.57
2019-01-30T20:44:41.825Z,62.50
2019-01-30T20:47:12.502Z,100.43
2019-01-30T20:49:42.200Z,120.20
2019-01-30T20:52:13.685Z,78.77
2019-01-30T20:54:45.312Z,182.63
2019-01-30T20:57:15.251Z,66.07
2019-01-30T20:59:48.458Z,54.70
2019-01-30T21:02:19.030Z,63.87
2019-01-30T21:04:48.745Z,56.93
2019-01-30T21:07:18.397Z,52.30
2019-01-30T21:09:48.207Z,49.80
2019-01-30T21:12:18.245Z,48.13
2019-01-30T21:14:48.167Z,45.67
2019-01-30T21:17:19.208Z,43.47
2019-01-30T21:19:49.325Z,44.07
2019-01-30T21:22:19.450Z,39.57
2019-01-30T21:24:51.122Z,39.23
2019-01-30T21:27:21.033Z,40.70
2019-01-30T21:29:50.730Z,37.17
2019-01-30T21:32:20.266Z,38.07
2019-01-30T21:34:51.710Z,38.07
2019-01-30T21:37:21.805Z,38.07
2019-01-30T21:39:52.026Z,38.70
2019-01-30T21:42:22.693Z,39.40
2019-01-30T21:44:52.601Z,40.37
2019-01-30T21:47:24.527Z,101.20
2019-01-30T21:49:54.176Z,90.53
2019-01-30T21:52:24.131Z,56.83
2019-01-30T21:54:54.037Z,51.27
2019-01-30T21:57:29.733Z,49.03
2019-01-30T22:00:01.205Z,41.97
2019-01-30T22:02:32.152Z,38.83
2019-01-30T22:05:03.168Z,38.77
2019-01-30T22:07:33.060Z,37.13
2019-01-30T22:10:04.260Z,35.27
2019-01-30T22:12:35.098Z,35.73
2019-01-30T22:15:12.787Z,36.03
2019-01-30T22:17:51.288Z,38.73
2019-01-30T22:20:24.396Z,44.87
2019-01-30T22:22:55.292Z,63.33
2019-01-30T22:25:27.590Z,60.97
2019-01-30T22:27:57.780Z,61.33
2019-01-30T22:30:32.349Z,53.93
2019-01-30T22:33:05.602Z,53.20
2019-01-30T22:35:41.202Z,53.43
2019-01-30T22:38:12.818Z,70.67
2019-01-30T22:40:54.881Z,83.50
2019-01-30T22:43:36.950Z,78.90
2019-01-30T22:46:07.953Z,57.00
2019-01-30T22:48:37.968Z,58.37
2019-01-30T22:51:10.980Z,56.50
2019-01-30T22:53:43.812Z,49.60
2019-01-30T22:56:18.280Z,58.67
2019-01-30T22:58:50.466Z,66.73
2019-01-30T23:01:30.915Z,65.47
2019-01-30T23:04:07.257Z,54.20
2019-01-30T23:07:01.099Z,54.63
2019-01-30T23:09:59.400Z,106.87
2019-01-30T23:12:59.554Z,65.40
2019-01-30T23:15:41.445Z,48.77
2019-01-30T23:18:40.027Z,44.40
2019-01-30T23:21:19.950Z,41.17
2019-01-30T23:24:12.629Z,39.77
2019-01-30T23:26:45.316Z,38.30
2019-01-30T23:29:25.654Z,39.47
2019-01-30T23:32:14.737Z,40.33
2019-01-30T23:34:53.429Z,39.77
2019-01-30T23:37:38.783Z,41.27
2019-01-30T23:40:23.385Z,42.87
2019-01-30T23:43:21.905Z,44.90
2019-01-30T23:46:16.228Z,42.97
2019-01-30T23:49:05.810Z,43.10
2019-01-30T23:51:56.843Z,44.10
2019-01-30T23:54:47.738Z,42.33
2019-01-30T23:57:29.437Z,43.17
